Time;durP1;ratioP1;P1;durP2;ratioP2;P2;SDS_P1;SDS_P2;PMS_P1;PMS_P2;Temp;Humidity;BMP_temperature;BMP_pressure;BME280_temperature;BME280_humidity;BME280_pressure;Samples;Min_cycle;Max_cycle;Signal;HPM_P1;HPM_P2
2021/05/17 00:02:11;;;;;;;20.60;16.02;;;359.20;2329.60;;;;;;5012717;28;20071;-75
2021/05/17 00:04:37;;;;;;;25.65;16.45;;;359.00;2329.60;;;;;;5012285;28;20029;-75
2021/05/17 00:07:07;;;;;;;19.15;15.45;;;359.10;2329.60;;;;;;4994648;28;20417;-75
2021/05/17 00:09:34;;;;;;;21.90;17.30;;;359.00;2329.60;;;;;;5012849;28;20105;-76
2021/05/17 00:12:00;;;;;;;24.13;18.70;;;358.80;2329.60;;;;;;5012171;28;20018;-74
2021/05/17 00:14:29;;;;;;;21.02;17.38;;;358.60;2329.60;;;;;;5012414;28;20358;-73
2021/05/17 00:16:55;;;;;;;25.08;19.02;;;358.80;2329.60;;;;;;5012222;28;20088;-73
2021/05/17 00:19:22;;;;;;;26.38;19.17;;;358.80;2329.60;;;;;;5012371;28;20026;-73
2021/05/17 00:21:48;;;;;;;23.77;18.33;;;358.60;2329.60;;;;;;5012073;28;20381;-73
2021/05/17 00:24:17;;;;;;;25.30;18.23;;;358.80;2329.60;;;;;;5012353;28;20342;-74
2021/05/17 00:26:43;;;;;;;29.95;19.88;;;358.40;2329.60;;;;;;5012302;28;20521;-73
2021/05/17 00:29:12;;;;;;;26.15;19.40;;;358.90;2329.60;;;;;;5011762;28;20021;-73
2021/05/17 00:31:39;;;;;;;22.08;17.63;;;358.70;2329.60;;;;;;5011975;28;20366;-74
2021/05/17 00:34:06;;;;;;;23.80;18.33;;;358.90;2329.60;;;;;;5012050;28;20025;-73
2021/05/17 00:36:32;;;;;;;24.23;16.73;;;359.00;2329.60;;;;;;5011716;28;20050;-73
2021/05/17 00:38:59;;;;;;;24.52;17.73;;;359.10;2329.60;;;;;;5011808;28;20044;-74
2021/05/17 00:41:26;;;;;;;29.75;19.35;;;359.10;2329.60;;;;;;5011906;28;20355;-73
2021/05/17 00:43:53;;;;;;;24.23;20.25;;;359.00;2329.60;;;;;;5011744;28;20049;-75
2021/05/17 00:46:20;;;;;;;24.25;19.38;;;358.80;2329.60;;;;;;5011454;28;20081;-74
2021/05/17 00:48:46;;;;;;;25.48;20.10;;;358.70;2329.60;;;;;;5011805;28;20026;-74
2021/05/17 00:51:12;;;;;;;26.27;19.70;;;358.70;2329.60;;;;;;5011634;28;20022;-76
2021/05/17 00:53:40;;;;;;;25.25;19.85;;;358.60;2329.60;;;;;;5011741;28;20121;-73
2021/05/17 00:56:06;;;;;;;25.13;19.75;;;358.70;2329.60;;;;;;5009645;28;20817;-73
2021/05/17 00:58:32;;;;;;;27.27;19.15;;;358.60;2329.60;;;;;;5011962;28;20104;-73
2021/05/17 01:01:02;;;;;;;26.77;19.25;;;358.80;2329.60;;;;;;5011227;28;20145;-73
2021/05/17 01:03:28;;;;;;;30.85;20.17;;;358.90;2329.60;;;;;;5011503;28;20022;-74
2021/05/17 01:05:55;;;;;;;24.38;19.65;;;358.70;2329.60;;;;;;4993477;28;20520;-75
2021/05/17 01:08:24;;;;;;;20.88;17.50;;;358.60;2329.60;;;;;;5011557;28;20478;-73
2021/05/17 01:10:54;;;;;;;21.65;18.77;;;358.50;2329.60;;;;;;5011682;28;20034;-74
2021/05/17 01:13:20;;;;;;;25.90;18.52;;;358.40;2329.60;;;;;;5011313;28;20445;-73
2021/05/17 01:15:50;;;;;;;23.00;17.02;;;333.70;2329.60;;;;;;5011467;28;20508;-74
2021/05/17 01:18:17;;;;;;;20.27;17.15;;;358.50;2329.60;;;;;;5011152;28;20105;-73
2021/05/17 01:20:46;;;;;;;20.67;16.35;;;358.60;2329.60;;;;;;5011297;28;20022;-73
2021/05/17 01:25:54;;;;;;;21.40;18.15;;;358.60;2329.60;;;;;;5011628;28;20029;-73
2021/05/17 01:28:24;;;;;;;26.63;18.33;;;358.50;2329.60;;;;;;5011340;28;20018;-73
2021/05/17 01:30:59;;;;;;;22.42;16.08;;;358.50;2329.60;;;;;;5011383;28;20090;-73
2021/05/17 01:33:30;;;;;;;22.42;17.10;;;358.50;2329.60;;;;;;5010818;28;20116;-76
2021/05/17 01:35:58;;;;;;;20.17;17.00;;;358.40;2329.60;;;;;;5010820;28;20050;-73
2021/05/17 01:38:25;;;;;;;22.23;17.95;;;333.70;2329.60;;;;;;5011038;28;20018;-73
2021/05/17 01:40:52;;;;;;;21.48;16.33;;;333.60;2329.60;;;;;;5012491;28;20053;-73
2021/05/17 01:43:20;;;;;;;21.40;17.25;;;333.50;2329.60;;;;;;5015059;28;21504;-73
2021/05/17 01:45:47;;;;;;;20.27;17.08;;;333.60;2329.60;;;;;;5015062;28;20018;-75
2021/05/17 01:48:14;;;;;;;23.55;17.60;;;333.60;2329.60;;;;;;5014892;28;20014;-75
2021/05/17 01:50:40;;;;;;;20.08;16.42;;;333.50;2329.60;;;;;;5015062;28;20076;-76
2021/05/17 01:53:07;;;;;;;22.27;16.45;;;333.50;2329.60;;;;;;5015116;28;20022;-74
2021/05/17 01:55:33;;;;;;;21.63;16.60;;;333.50;2329.60;;;;;;5015199;28;20037;-74
2021/05/17 01:58:25;;;;;;;20.85;16.40;;;333.50;2329.60;;;;;;5014563;28;20022;-74
2021/05/17 02:00:50;;;;;;;19.42;15.88;;;333.70;2329.60;;;;;;5011066;28;20034;-73
2021/05/17 02:03:16;;;;;;;20.67;16.42;;;333.70;2329.60;;;;;;5014881;28;20018;-73
2021/05/17 02:05:46;;;;;;;20.75;16.05;;;333.70;2329.60;;;;;;5014456;28;20489;-73
2021/05/17 02:08:13;;;;;;;21.13;16.20;;;358.40;2329.60;;;;;;5014978;28;20026;-74
2021/05/17 02:10:40;;;;;;;19.77;15.57;;;358.40;2329.60;;;;;;5014951;28;20022;-73
2021/05/17 02:13:07;;;;;;;18.92;15.63;;;358.50;2329.60;;;;;;5012555;28;20100;-73
2021/05/17 02:15:36;;;;;;;23.90;15.02;;;358.50;2329.60;;;;;;5014815;28;20597;-73
2021/05/17 02:18:01;;;;;;;17.25;14.75;;;358.50;2329.60;;;;;;5014255;28;20532;-73
2021/05/17 02:20:31;;;;;;;20.55;13.55;;;358.60;2329.60;;;;;;5014705;28;20018;-74
2021/05/17 02:22:58;;;;;;;18.90;13.52;;;358.80;2329.60;;;;;;5014189;28;20085;-73
2021/05/17 02:25:25;;;;;;;18.40;15.02;;;358.90;2329.60;;;;;;5014432;28;20026;-73
2021/05/17 02:27:51;;;;;;;21.02;15.73;;;358.80;2329.60;;;;;;5013983;28;20018;-73
2021/05/17 02:30:17;;;;;;;17.55;15.50;;;358.80;2329.60;;;;;;5014195;28;20469;-73
2021/05/17 02:32:44;;;;;;;20.17;16.92;;;333.60;2329.60;;;;;;5014283;28;20068;-73
2021/05/17 02:35:10;;;;;;;19.65;16.17;;;358.60;2329.60;;;;;;5013822;28;20034;-73
2021/05/17 02:37:36;;;;;;;22.88;17.90;;;358.50;2329.60;;;;;;5014481;28;20393;-73
2021/05/17 02:40:04;;;;;;;21.80;18.45;;;358.40;2329.60;;;;;;5014019;28;20033;-73
2021/05/17 02:42:32;;;;;;;20.75;18.55;;;358.50;2329.60;;;;;;5014096;28;20022;-74
2021/05/17 02:44:58;;;;;;;24.40;19.92;;;333.70;2329.60;;;;;;5013978;28;20026;-75
2021/05/17 02:47:25;;;;;;;23.60;20.38;;;333.70;2329.60;;;;;;5013953;28;20021;-74
2021/05/17 02:49:52;;;;;;;22.90;19.38;;;333.70;2329.60;;;;;;5014321;28;20029;-74
2021/05/17 02:52:18;;;;;;;24.67;20.05;;;333.70;2329.60;;;;;;5012693;28;20024;-73
2021/05/17 02:54:57;;;;;;;22.88;20.00;;;358.40;2329.60;;;;;;5013841;28;20026;-73
2021/05/17 02:57:41;;;;;;;24.25;19.15;;;358.40;2329.60;;;;;;5013593;28;20084;-73
2021/05/17 03:00:15;;;;;;;23.23;19.60;;;358.50;2329.60;;;;;;5011255;28;20028;-73
2021/05/17 03:03:00;;;;;;;32.55;20.60;;;358.40;2329.60;;;;;;5013763;28;20541;-74
2021/05/17 03:05:33;;;;;;;26.50;20.83;;;358.50;2329.60;;;;;;5013291;28;20034;-73
2021/05/17 03:08:01;;;;;;;23.58;19.80;;;358.50;2329.60;;;;;;5012700;28;20049;-74
2021/05/17 03:10:28;;;;;;;28.95;20.63;;;358.50;2329.60;;;;;;5013430;28;20021;-74
2021/05/17 03:12:56;;;;;;;24.63;20.67;;;358.50;2329.60;;;;;;5013375;28;20512;-74
2021/05/17 03:15:26;;;;;;;23.73;20.17;;;358.50;2329.60;;;;;;5013369;28;20092;-74
2021/05/17 03:17:53;;;;;;;27.33;20.98;;;358.40;2329.60;;;;;;5013241;28;20068;-73
2021/05/17 03:20:20;;;;;;;23.23;20.55;;;333.70;2329.60;;;;;;5013437;28;20026;-73
2021/05/17 03:22:49;;;;;;;24.48;20.63;;;333.70;2329.60;;;;;;5013069;28;20474;-73
2021/05/17 03:25:17;;;;;;;29.70;21.42;;;358.40;2329.60;;;;;;5013921;28;20060;-76
2021/05/17 03:27:44;;;;;;;24.90;19.77;;;358.50;2329.60;;;;;;5012986;28;20022;-74
2021/05/17 03:30:11;;;;;;;22.90;18.75;;;358.60;2329.60;;;;;;5013138;28;20474;-74
2021/05/17 03:32:37;;;;;;;24.65;19.90;;;358.80;2329.60;;;;;;5013324;28;20112;-73
2021/05/17 03:35:03;;;;;;;24.30;17.40;;;358.90;2329.60;;;;;;5012547;28;20125;-76
2021/05/17 03:37:29;;;;;;;22.63;19.48;;;358.90;2329.60;;;;;;5012856;28;20041;-73
2021/05/17 03:39:55;;;;;;;22.00;19.40;;;358.90;2329.60;;;;;;5013008;28;20501;-73
2021/05/17 03:42:21;;;;;;;21.95;19.42;;;358.90;2329.60;;;;;;5013133;28;20049;-74
2021/05/17 03:44:47;;;;;;;23.20;18.67;;;359.00;2329.60;;;;;;5012518;28;20164;-74
2021/05/17 03:47:12;;;;;;;21.92;18.42;;;358.90;2329.60;;;;;;5012809;28;20018;-73
2021/05/17 03:49:38;;;;;;;20.52;18.33;;;359.00;2329.60;;;;;;5012749;28;20359;-73
2021/05/17 03:52:04;;;;;;;20.65;18.40;;;359.10;2329.60;;;;;;5012910;28;20032;-73
2021/05/17 03:54:30;;;;;;;23.35;18.17;;;359.10;2329.60;;;;;;5012630;28;20026;-73
2021/05/17 03:56:57;;;;;;;28.95;18.60;;;359.10;2329.60;;;;;;5012692;28;20076;-74
2021/05/17 03:59:23;;;;;;;20.95;16.27;;;359.10;2329.60;;;;;;5012745;28;20101;-76
2021/05/17 04:01:50;;;;;;;21.52;15.90;;;359.30;2329.60;;;;;;5012575;28;20101;-74
2021/05/17 04:04:18;;;;;;;23.95;16.88;;;384.00;2329.60;;;;;;5012073;28;20475;-74
2021/05/17 04:14:59;;;;;;;19.88;16.08;;;384.00;2329.60;;;;;;4932460;29;20036;-74
2021/05/17 04:17:25;;;;;;;23.02;17.15;;;384.10;2329.60;;;;;;4929834;29;20044;-74
2021/05/17 04:19:50;;;;;;;21.30;17.67;;;384.00;2329.60;;;;;;4933259;29;20063;-74
2021/05/17 04:22:16;;;;;;;21.33;17.63;;;359.30;2329.60;;;;;;4932383;29;20119;-73
2021/05/17 04:24:42;;;;;;;24.50;17.90;;;359.30;2329.60;;;;;;4932614;29;20122;-73
2021/05/17 04:27:08;;;;;;;22.05;18.55;;;359.10;2329.60;;;;;;4932616;29;20097;-74
2021/05/17 04:29:34;;;;;;;20.90;16.83;;;359.10;2329.60;;;;;;4933286;29;20166;-74
2021/05/17 04:32:00;;;;;;;18.67;16.42;;;359.10;2329.60;;;;;;4932853;29;20039;-74
2021/05/17 04:34:26;;;;;;;19.30;16.17;;;359.10;2329.60;;;;;;4932669;29;20046;-74
2021/05/17 04:36:51;;;;;;;20.70;16.25;;;359.20;2329.60;;;;;;4932563;29;20047;-74
2021/05/17 04:39:17;;;;;;;20.80;15.68;;;359.30;2329.60;;;;;;4933149;29;20468;-73
2021/05/17 04:41:43;;;;;;;26.80;17.73;;;359.30;2329.60;;;;;;4932924;29;20436;-75
2021/05/17 04:44:09;;;;;;;26.83;18.05;;;384.00;2329.60;;;;;;4968525;28;20034;-74
2021/05/17 04:46:34;;;;;;;23.02;15.82;;;384.00;2329.60;;;;;;4991013;28;20117;-73
2021/05/17 04:49:00;;;;;;;19.58;15.50;;;384.00;2329.60;;;;;;4996505;28;20034;-74
2021/05/17 04:51:26;;;;;;;19.13;15.30;;;384.00;2329.60;;;;;;5012665;28;20056;-76
2021/05/17 04:53:52;;;;;;;20.73;16.42;;;384.10;2329.60;;;;;;5011148;28;20698;-76
2021/05/17 04:56:19;;;;;;;18.20;15.77;;;384.10;2329.60;;;;;;4993211;28;20389;-75
2021/05/17 04:58:44;;;;;;;18.27;15.38;;;384.10;2329.60;;;;;;5010548;28;20030;-76
2021/05/17 05:01:10;;;;;;;20.02;14.20;;;384.10;2329.60;;;;;;4996920;28;20028;-74
2021/05/17 05:03:36;;;;;;;18.48;15.73;;;384.10;2329.60;;;;;;5010160;28;20018;-75
2021/05/17 05:06:02;;;;;;;17.77;14.02;;;384.10;2329.60;;;;;;5010004;28;20109;-76
2021/05/17 05:08:28;;;;;;;18.15;14.75;;;384.00;2329.60;;;;;;5010095;28;20519;-74
2021/05/17 05:10:54;;;;;;;17.80;14.95;;;359.30;2329.60;;;;;;5011780;28;20398;-74
2021/05/17 05:13:20;;;;;;;17.33;14.07;;;384.00;2329.60;;;;;;5012186;28;20079;-73
2021/05/17 05:15:52;;;;;;;17.58;14.88;;;384.00;2329.60;;;;;;4990682;28;20501;-75
2021/05/17 05:18:18;;;;;;;15.40;13.60;;;384.00;2329.60;;;;;;5011639;28;20486;-74
2021/05/17 05:20:43;;;;;;;15.63;14.00;;;384.20;2329.60;;;;;;5011556;28;20104;-77
2021/05/17 05:23:17;;;;;;;17.17;15.32;;;384.30;2329.60;;;;;;5011972;28;20014;-75
2021/05/17 05:28:22;;;;;;;23.13;15.33;;;384.40;2329.60;;;;;;5011635;28;20164;-74
2021/05/17 05:31:05;;;;;;;24.38;15.82;;;384.40;2329.60;;;;;;5011833;28;20356;-76
2021/05/17 05:33:30;;;;;;;18.05;14.80;;;384.60;2329.60;;;;;;5011580;28;20025;-75
2021/05/17 05:35:56;;;;;;;18.55;14.80;;;384.50;2329.60;;;;;;5011593;28;20046;-75
2021/05/17 05:38:22;;;;;;;18.00;13.85;;;384.40;2329.60;;;;;;5011485;28;20018;-77
2021/05/17 05:40:48;;;;;;;18.05;14.55;;;384.60;2329.60;;;;;;5011316;28;20366;-76
2021/05/17 05:43:14;;;;;;;21.48;15.75;;;384.60;2329.60;;;;;;5012051;28;20022;-75
2021/05/17 05:45:45;;;;;;;21.15;16.73;;;384.60;2329.60;;;;;;5011520;28;20022;-75
2021/05/17 05:48:11;;;;;;;23.85;18.70;;;384.50;2329.60;;;;;;5011518;28;20060;-75
2021/05/17 05:50:38;;;;;;;18.08;16.17;;;384.40;2329.60;;;;;;5011603;28;20026;-75
2021/05/17 05:53:04;;;;;;;19.52;17.52;;;384.30;2329.60;;;;;;5011870;28;20501;-75
2021/05/17 05:55:30;;;;;;;20.00;16.95;;;384.10;2329.60;;;;;;5011301;28;20042;-74
2021/05/17 05:57:57;;;;;;;22.77;17.95;;;384.10;2329.60;;;;;;4993236;28;20507;-77
2021/05/17 06:00:29;;;;;;;25.15;18.48;;;359.30;2329.60;;;;;;5010912;28;20373;-74
2021/05/17 06:02:55;;;;;;;25.40;19.17;;;384.00;2329.60;;;;;;5010482;28;20029;-75
2021/05/17 06:05:21;;;;;;;24.15;19.58;;;359.30;2329.60;;;;;;5011798;28;20116;-75
2021/05/17 06:07:47;;;;;;;25.10;18.95;;;359.30;2329.60;;;;;;5011279;28;20163;-74
2021/05/17 06:10:13;;;;;;;24.33;20.38;;;359.20;2329.60;;;;;;5011955;28;20034;-75
2021/05/17 06:12:40;;;;;;;22.52;20.17;;;359.30;2329.60;;;;;;5011159;28;20022;-75
2021/05/17 06:15:10;;;;;;;28.17;21.08;;;359.10;2329.60;;;;;;5011512;28;20034;-75
2021/05/17 06:17:36;;;;;;;26.83;21.95;;;359.30;2329.60;;;;;;5006539;28;20029;-75
2021/05/17 06:20:04;;;;;;;23.80;20.05;;;359.30;2329.60;;;;;;5011494;28;20173;-78
2021/05/17 06:22:30;;;;;;;27.02;22.50;;;359.30;2329.60;;;;;;5011559;28;20045;-76
2021/05/17 06:24:59;;;;;;;26.55;22.65;;;359.20;2329.60;;;;;;5010656;28;20022;-74
2021/05/17 06:27:25;;;;;;;24.63;20.50;;;359.30;2329.60;;;;;;5013068;28;20030;-74
2021/05/17 06:29:54;;;;;;;26.38;22.40;;;384.00;2329.60;;;;;;4995705;28;20030;-74
2021/05/17 06:32:20;;;;;;;28.90;23.25;;;384.00;2329.60;;;;;;5014283;28;20030;-75
2021/05/17 06:34:48;;;;;;;22.65;19.35;;;384.00;2329.60;;;;;;5013922;28;20033;-75
2021/05/17 06:37:14;;;;;;;28.10;23.92;;;384.00;2329.60;;;;;;5014219;28;20050;-74
2021/05/17 06:39:40;;;;;;;29.75;21.08;;;384.10;2329.60;;;;;;5014462;28;20077;-74
2021/05/17 06:42:07;;;;;;;31.13;22.77;;;384.10;2329.60;;;;;;5014150;28;20050;-74
2021/05/17 06:44:32;;;;;;;24.15;19.83;;;384.20;2329.60;;;;;;5013842;28;20029;-75
2021/05/17 06:46:59;;;;;;;27.48;21.83;;;384.30;2329.60;;;;;;5009251;28;20030;-75
2021/05/17 06:49:27;;;;;;;24.50;21.52;;;384.10;2329.60;;;;;;5014093;28;20018;-75
2021/05/17 06:51:54;;;;;;;25.75;21.13;;;384.20;2329.60;;;;;;4996164;28;20051;-74
2021/05/17 06:54:23;;;;;;;27.70;21.33;;;384.20;2329.60;;;;;;5014520;28;20022;-79
2021/05/17 06:59:56;;;;;;;24.23;20.88;;;384.30;2329.60;;;;;;4962492;28;20474;-77
2021/05/17 07:02:22;;;;;;;32.38;23.55;;;384.30;2329.60;;;;;;4957916;28;20035;-74
2021/05/17 07:04:51;;;;;;;25.50;22.75;;;384.30;2329.60;;;;;;4960606;28;20033;-74
2021/05/17 07:07:30;;;;;;;29.88;21.75;;;384.30;2329.60;;;;;;4959331;28;20043;-73
2021/05/17 07:12:40;;;;;;;27.52;22.67;;;384.30;2329.60;;;;;;4966999;28;20573;-74
2021/05/17 07:15:06;;;;;;;32.65;23.35;;;384.30;2329.60;;;;;;4961944;28;20054;-74
2021/05/17 07:17:32;;;;;;;30.20;23.50;;;384.20;2329.60;;;;;;4958578;28;20027;-73
2021/05/17 07:19:58;;;;;;;28.35;24.50;;;384.30;2329.60;;;;;;4959726;28;20034;-74
2021/05/17 07:25:09;;;;;;;25.20;22.23;;;384.60;2329.60;;;;;;4961470;28;20084;-75
2021/05/17 07:27:35;;;;;;;29.27;24.70;;;384.60;2329.60;;;;;;4960078;28;20036;-76
2021/05/17 07:30:02;;;;;;;28.45;24.80;;;384.60;2329.60;;;;;;4960418;28;20415;-77
2021/05/17 07:32:28;;;;;;;29.42;24.73;;;384.70;2329.60;;;;;;4961378;28;20102;-75
2021/05/17 07:34:55;;;;;;;33.63;25.70;;;384.70;2329.60;;;;;;5010061;28;20077;-77
2021/05/17 07:37:21;;;;;;;26.30;21.70;;;384.70;2329.60;;;;;;4995984;28;20050;-76
2021/05/17 07:39:48;;;;;;;27.38;23.05;;;384.80;2329.60;;;;;;5013038;28;20497;-75
2021/05/17 07:42:13;;;;;;;34.30;24.95;;;384.80;2329.60;;;;;;4995834;28;20566;-77
2021/05/17 07:44:39;;;;;;;29.25;24.00;;;384.80;2329.60;;;;;;5013321;28;20096;-74
2021/05/17 07:47:05;;;;;;;22.08;17.88;;;409.60;2355.20;;;;;;5013443;28;20028;-74
2021/05/17 07:49:39;;;;;;;17.67;15.77;;;409.60;2355.20;;;;;;5013486;28;20021;-75
2021/05/17 07:52:06;;;;;;;17.60;15.27;;;409.60;2355.20;;;;;;5013447;28;20033;-75
2021/05/17 07:54:33;;;;;;;17.88;15.15;;;409.60;2355.20;;;;;;4995916;28;20033;-75
2021/05/17 07:56:59;;;;;;;19.83;13.68;;;409.60;2355.20;;;;;;5013503;28;20051;-77
2021/05/17 07:59:28;;;;;;;15.48;11.85;;;409.70;2355.20;;;;;;4987505;28;20072;-76
2021/05/17 08:01:55;;;;;;;15.82;11.68;;;409.70;2355.20;;;;;;5013131;28;20105;-75
2021/05/17 08:04:21;;;;;;;14.20;11.57;;;409.80;2355.20;;;;;;5012747;28;20028;-75
2021/05/17 08:06:47;;;;;;;19.17;12.80;;;409.70;2355.20;;;;;;5013116;28;20105;-75
2021/05/17 08:09:13;;;;;;;14.73;10.05;;;409.70;2355.20;;;;;;5013028;28;20351;-74
2021/05/17 08:11:38;;;;;;;16.45;11.13;;;409.70;2355.20;;;;;;5013261;28;20022;-76
2021/05/17 08:14:04;;;;;;;12.02;9.90;;;409.70;2355.20;;;;;;5012485;28;20072;-75
2021/05/17 08:16:32;;;;;;;11.13;9.63;;;409.80;2355.20;;;;;;5012914;28;20033;-73
2021/05/17 08:18:58;;;;;;;15.38;10.02;;;409.90;2355.20;;;;;;5012778;28;20117;-74
2021/05/17 08:21:24;;;;;;;11.18;9.02;;;409.90;2355.20;;;;;;5012816;28;20517;-75
2021/05/17 08:23:52;;;;;;;12.45;9.63;;;409.80;2355.20;;;;;;5003441;28;20026;-77
2021/05/17 08:26:17;;;;;;;13.05;10.23;;;409.80;2355.20;;;;;;5012604;28;20018;-74
2021/05/17 08:28:43;;;;;;;13.45;9.80;;;409.70;2355.20;;;;;;5012866;28;20068;-74
2021/05/17 08:31:14;;;;;;;16.10;11.18;;;409.60;2355.20;;;;;;4994314;28;20038;-75
2021/05/17 08:33:40;;;;;;;15.18;11.95;;;409.60;2355.20;;;;;;5012371;28;20037;-77
2021/05/17 08:36:07;;;;;;;14.52;10.32;;;409.60;2355.20;;;;;;5012231;28;20103;-74
2021/05/17 08:38:33;;;;;;;14.00;12.10;;;409.60;2355.20;;;;;;5012489;28;20025;-75
2021/05/17 08:40:59;;;;;;;13.32;11.30;;;409.60;2355.20;;;;;;5012205;28;20026;-75
2021/05/17 08:43:26;;;;;;;16.17;11.07;;;409.60;2355.20;;;;;;5012560;28;20018;-75
2021/05/17 08:45:53;;;;;;;14.27;8.85;;;384.90;2329.60;;;;;;4998316;28;20053;-74
2021/05/17 08:48:19;;;;;;;9.93;7.28;;;409.60;2355.20;;;;;;5007444;28;20232;-74
2021/05/17 08:50:45;;;;;;;14.13;9.68;;;409.60;2355.20;;;;;;5007112;28;20426;-75
2021/05/17 08:53:12;;;;;;;9.32;7.50;;;409.60;2355.20;;;;;;5011832;28;20390;-75
2021/05/17 08:55:39;;;;;;;13.93;9.02;;;409.60;2355.20;;;;;;5011902;28;20073;-75
2021/05/17 08:58:05;;;;;;;12.48;8.23;;;409.60;2355.20;;;;;;5011897;28;20029;-75
2021/05/17 09:00:31;;;;;;;12.20;8.82;;;384.80;2329.60;;;;;;5010512;28;20026;-75
2021/05/17 09:02:57;;;;;;;11.93;8.15;;;409.60;2355.20;;;;;;5008617;28;20066;-74
2021/05/17 09:05:27;;;;;;;13.52;9.60;;;409.60;2355.20;;;;;;5011586;28;20176;-76
2021/05/17 09:07:54;;;;;;;11.30;7.75;;;409.70;2355.20;;;;;;5011573;28;20533;-74
2021/05/17 09:10:21;;;;;;;15.70;11.13;;;409.70;2355.20;;;;;;5011169;28;20032;-74
2021/05/17 09:13:07;;;;;;;15.60;9.65;;;409.70;2355.20;;;;;;5011106;28;20048;-73
2021/05/17 09:15:34;;;;;;;13.40;9.48;;;409.70;2355.20;;;;;;5004292;28;20536;-75
2021/05/17 09:18:06;;;;;;;14.45;9.57;;;409.70;2355.20;;;;;;5011373;28;20022;-75
2021/05/17 09:20:37;;;;;;;13.73;10.15;;;409.70;2355.20;;;;;;5011742;28;20438;-75
2021/05/17 09:23:18;;;;;;;10.07;7.30;;;409.80;2355.20;;;;;;5011404;28;20017;-75
2021/05/17 09:26:00;;;;;;;17.02;9.98;;;409.90;2355.20;;;;;;5011101;28;20029;-74
2021/05/17 09:28:37;;;;;;;11.48;8.75;;;409.90;2355.20;;;;;;5011044;28;20021;-74
2021/05/17 09:31:05;;;;;;;13.65;7.40;;;409.90;2355.20;;;;;;5010682;28;20033;-74
2021/05/17 09:33:46;;;;;;;11.35;9.07;;;410.00;2355.20;;;;;;5006001;28;20026;-74
2021/05/17 09:36:29;;;;;;;12.18;8.35;;;410.00;2355.20;;;;;;5010560;28;20037;-75
2021/05/17 09:39:05;;;;;;;14.25;9.90;;;410.30;2355.20;;;;;;4991621;28;20459;-75
2021/05/17 09:41:55;;;;;;;15.88;7.70;;;410.50;2355.20;;;;;;5011594;28;20026;-74
2021/05/17 09:44:28;;;;;;;9.80;8.32;;;410.50;2355.20;;;;;;5011445;28;20022;-75
2021/05/17 09:47:21;;;;;;;11.07;7.50;;;410.50;2355.20;;;;;;4997359;28;20026;-73
2021/05/17 09:49:57;;;;;;;16.10;9.88;;;410.50;2355.20;;;;;;5011719;28;20074;-74
2021/05/17 09:52:22;;;;;;;12.07;7.93;;;410.40;2355.20;;;;;;5008013;28;20025;-74
2021/05/17 09:54:52;;;;;;;11.32;6.53;;;410.50;2355.20;;;;;;5000997;28;20038;-74
2021/05/17 09:57:36;;;;;;;14.00;10.25;;;435.20;2355.20;;;;;;5009430;28;20029;-74
2021/05/17 10:00:20;;;;;;;10.63;8.27;;;435.20;2355.20;;;;;;5006100;28;20363;-74
2021/05/17 10:02:51;;;;;;;15.65;8.85;;;435.20;2355.20;;;;;;5013632;28;20146;-74
2021/05/17 10:05:23;;;;;;;10.88;8.18;;;435.50;2355.20;;;;;;4997824;28;20041;-74
2021/05/17 10:07:55;;;;;;;14.13;10.95;;;435.20;2355.20;;;;;;5014860;28;20046;-74
2021/05/17 10:10:23;;;;;;;16.50;10.88;;;435.20;2355.20;;;;;;5014908;28;20053;-74
2021/05/17 10:12:53;;;;;;;12.30;10.38;;;435.20;2355.20;;;;;;5015073;28;20013;-75
2021/05/17 10:15:20;;;;;;;18.27;12.40;;;435.20;2355.20;;;;;;5014395;28;20037;-74
2021/05/17 10:17:46;;;;;;;14.75;10.90;;;410.40;2355.20;;;;;;5015092;28;20056;-75
2021/05/17 10:20:16;;;;;;;13.80;10.02;;;410.40;2355.20;;;;;;5014492;28;20076;-74
2021/05/17 10:22:45;;;;;;;11.68;8.73;;;410.30;2355.20;;;;;;5014844;28;20041;-73
2021/05/17 10:25:13;;;;;;;15.48;8.80;;;410.20;2355.20;;;;;;5015003;28;20049;-73
2021/05/17 10:27:47;;;;;;;13.43;9.35;;;410.20;2355.20;;;;;;5014921;28;20436;-74
2021/05/17 10:30:15;;;;;;;15.23;9.52;;;410.20;2355.20;;;;;;5014843;28;20025;-74
2021/05/17 10:32:44;;;;;;;12.68;8.43;;;410.20;2355.20;;;;;;5014535;28;20466;-74
2021/05/17 10:35:15;;;;;;;13.05;10.07;;;410.20;2355.20;;;;;;5014304;28;20042;-74
2021/05/17 10:37:44;;;;;;;13.23;9.10;;;410.00;2355.20;;;;;;5014309;28;20034;-74
2021/05/17 10:40:26;;;;;;;13.50;10.13;;;410.00;2355.20;;;;;;5014494;28;20026;-74
2021/05/17 10:42:57;;;;;;;15.88;10.98;;;410.00;2355.20;;;;;;5014441;28;20049;-74
2021/05/17 10:48:27;;;;;;;17.00;14.20;;;410.10;2355.20;;;;;;5014818;28;20037;-76
2021/05/17 10:51:15;;;;;;;26.80;17.38;;;410.10;2355.20;;;;;;4995937;28;20402;-77
2021/05/17 10:53:41;;;;;;;21.85;17.52;;;410.20;2355.20;;;;;;5014352;28;20088;-74
2021/05/17 10:56:11;;;;;;;26.60;19.70;;;410.20;2355.20;;;;;;5013104;28;20100;-75
2021/05/17 11:02:00;;;;;;;28.85;21.75;;;410.50;2355.20;;;;;;5013063;28;20036;-75
2021/05/17 11:04:35;;;;;;;26.58;18.55;;;435.30;2355.20;;;;;;5013440;28;20409;-74
2021/05/17 11:07:11;;;;;;;19.02;16.48;;;435.20;2355.20;;;;;;5013677;28;20478;-73
2021/05/17 11:09:42;;;;;;;22.03;17.20;;;435.40;2355.20;;;;;;5014112;28;20034;-75
2021/05/17 11:12:26;;;;;;;19.05;15.10;;;435.40;2355.20;;;;;;5013802;28;20596;-72
2021/05/17 11:15:11;;;;;;;18.80;14.27;;;435.40;2355.20;;;;;;5012688;28;20389;-74
2021/05/17 11:17:56;;;;;;;18.23;14.10;;;435.50;2355.20;;;;;;5013996;28;20021;-74
2021/05/17 11:20:41;;;;;;;16.38;13.27;;;435.70;2355.20;;;;;;5014116;28;20034;-74
2021/05/17 11:23:09;;;;;;;15.15;11.68;;;435.90;2355.20;;;;;;5003770;28;20029;-75
2021/05/17 11:25:56;;;;;;;15.45;11.38;;;460.90;2380.80;;;;;;5013814;28;20351;-75
2021/05/17 11:28:36;;;;;;;;;;;460.90;2380.80;;;;;;5013562;28;20112;-76
2021/05/17 11:31:20;;;;;;;16.42;10.80;;;460.90;2380.80;;;;;;5011351;28;19917;-76
2021/05/17 11:33:55;;;;;;;15.25;11.80;;;461.10;2380.80;;;;;;5010080;28;20022;-77
2021/05/17 11:36:25;;;;;;;13.23;11.80;;;461.50;2380.80;;;;;;5012166;28;20056;-74
2021/05/17 11:39:14;;;;;;;11.15;9.63;;;486.50;2380.80;;;;;;5012819;28;20413;-74
2021/05/17 11:41:53;;;;;;;11.07;8.43;;;486.60;2380.80;;;;;;5012687;28;20056;-74
2021/05/17 11:47:19;;;;;;;13.13;9.35;;;486.40;2380.80;;;;;;5013245;28;20029;-76
2021/05/17 11:49:47;;;;;;;13.05;8.45;;;486.40;2380.80;;;;;;4995165;28;20429;-75
2021/05/17 11:52:33;;;;;;;9.35;6.65;;;486.40;2380.80;;;;;;5013027;28;20157;-75
2021/05/17 11:55:07;;;;;;;8.50;7.22;;;461.70;2380.80;;;;;;5004508;28;20029;-75
2021/05/17 11:57:40;;;;;;;8.68;7.10;;;461.50;2380.80;;;;;;5012926;28;20077;-76
2021/05/17 12:00:25;;;;;;;9.55;6.38;;;461.50;2380.80;;;;;;5013469;28;20030;-75
2021/05/17 12:02:52;;;;;;;10.13;7.00;;;461.50;2380.80;;;;;;5010328;28;20076;-78
2021/05/17 12:05:20;;;;;;;29.92;16.98;;;461.40;2380.80;;;;;;5005284;28;20029;-75
2021/05/17 12:07:51;;;;;;;15.38;11.20;;;461.40;2380.80;;;;;;5012870;28;20022;-77
2021/05/17 12:10:18;;;;;;;7.07;5.65;;;461.40;2380.80;;;;;;5012596;28;20525;-75
2021/05/17 12:12:44;;;;;;;11.70;6.75;;;461.30;2380.80;;;;;;5010443;28;20022;-75
2021/05/17 12:15:20;;;;;;;7.90;5.88;;;461.40;2380.80;;;;;;5001189;28;20034;-75
2021/05/17 12:17:46;;;;;;;10.70;7.05;;;461.40;2380.80;;;;;;5010997;28;20120;-75
2021/05/17 12:20:18;;;;;;;9.25;7.05;;;461.30;2380.80;;;;;;5012867;28;20065;-75
2021/05/17 12:22:48;;;;;;;6.97;5.60;;;461.30;2380.80;;;;;;5012492;28;20040;-75
2021/05/17 12:25:17;;;;;;;8.45;6.32;;;461.30;2380.80;;;;;;4995177;28;20030;-77
2021/05/17 12:27:44;;;;;;;19.00;14.80;;;461.30;2380.80;;;;;;5011851;28;20029;-75
2021/05/17 12:30:19;;;;;;;26.70;17.13;;;461.20;2380.80;;;;;;5012944;28;20019;-75
2021/05/17 12:32:49;;;;;;;11.10;8.43;;;461.20;2380.80;;;;;;4994947;28;20022;-77
2021/05/17 12:35:21;;;;;;;10.90;6.63;;;461.20;2380.80;;;;;;5011718;28;20033;-75
2021/05/17 12:37:51;;;;;;;18.00;8.68;;;461.20;2380.80;;;;;;5012049;28;20026;-77
2021/05/17 12:40:23;;;;;;;21.90;11.98;;;461.20;2380.80;;;;;;5009712;28;20030;-76
2021/05/17 12:43:06;;;;;;;14.93;11.00;;;461.10;2380.80;;;;;;5008770;28;20025;-75